createdAt,value
2017-09-20T00:00:17.018Z,23.65
2017-09-20T00:02:45.119Z,23.62
2017-09-20T00:05:13.987Z,24.73
2017-09-20T00:07:42.531Z,24.83
2017-09-20T00:10:10.610Z,24.10
2017-09-20T00:12:40.207Z,25.12
2017-09-20T00:15:08.309Z,27.73
2017-09-20T00:17:37.162Z,25.40
2017-09-20T00:20:06.030Z,24.80
2017-09-20T00:22:35.258Z,25.35
2017-09-20T00:25:03.775Z,25.80
2017-09-20T00:27:31.882Z,26.40
2017-09-20T00:30:00.739Z,25.73
2017-09-20T00:32:28.822Z,26.15
2017-09-20T00:34:56.975Z,27.60
2017-09-20T00:37:25.063Z,26.55
2017-09-20T00:39:53.151Z,26.70
2017-09-20T00:42:21.259Z,27.23
2017-09-20T00:44:49.362Z,26.55
2017-09-20T00:47:18.240Z,26.60
2017-09-20T00:49:46.743Z,26.17
2017-09-20T00:52:14.830Z,27.50
2017-09-20T00:54:42.938Z,25.73
2017-09-20T00:57:11.796Z,25.77
2017-09-20T00:59:39.883Z,26.60
2017-09-20T01:02:08.002Z,26.42
2017-09-20T01:04:36.096Z,27.13
2017-09-20T01:07:04.185Z,27.05
2017-09-20T01:09:32.287Z,27.05
2017-09-20T01:12:01.159Z,27.75
2017-09-20T01:14:29.274Z,28.20
2017-09-20T01:16:57.359Z,25.77
2017-09-20T01:19:25.456Z,26.27
2017-09-20T01:22:05.559Z,26.42
2017-09-20T01:24:33.661Z,26.77
2017-09-20T01:27:01.770Z,27.33
2017-09-20T01:29:29.851Z,27.23
2017-09-20T01:31:58.367Z,27.33
2017-09-20T01:34:26.457Z,31.70
2017-09-20T01:36:55.311Z,31.15
2017-09-20T01:39:24.181Z,31.27
2017-09-20T01:41:52.339Z,32.20
2017-09-20T01:44:20.449Z,31.90
2017-09-20T01:46:49.303Z,31.73
2017-09-20T01:49:17.407Z,30.33
2017-09-20T01:51:45.911Z,27.17
2017-09-20T01:54:14.033Z,29.50
2017-09-20T01:56:42.119Z,27.85
2017-09-20T01:59:10.201Z,28.08
2017-09-20T02:01:39.077Z,29.17
2017-09-20T02:04:13.691Z,27.05
2017-09-20T02:06:41.803Z,24.65
2017-09-20T02:09:10.649Z,29.00
2017-09-20T02:11:38.766Z,29.87
2017-09-20T02:14:07.613Z,27.70
2017-09-20T02:16:35.697Z,26.75
2017-09-20T02:19:03.818Z,28.33
2017-09-20T02:21:31.898Z,25.80
2017-09-20T02:24:00.039Z,28.40
2017-09-20T02:26:28.882Z,27.13
2017-09-20T02:28:56.962Z,26.17
2017-09-20T02:31:25.061Z,25.62
2017-09-20T02:33:53.161Z,25.40
2017-09-20T02:36:21.300Z,30.30
2017-09-20T02:38:49.357Z,31.45
2017-09-20T02:41:17.475Z,28.85
2017-09-20T02:43:46.322Z,32.15
2017-09-20T02:46:14.402Z,32.83
2017-09-20T02:48:42.502Z,28.17
2017-09-20T02:51:11.361Z,26.23
2017-09-20T02:53:39.447Z,29.37
2017-09-20T02:56:07.538Z,30.30
2017-09-20T02:58:36.398Z,30.50
2017-09-20T03:01:04.941Z,31.70
2017-09-20T03:03:33.021Z,32.05
2017-09-20T03:06:02.239Z,31.40
2017-09-20T03:08:36.682Z,32.35
2017-09-20T03:11:10.334Z,33.65
2017-09-20T03:13:44.222Z,32.58
2017-09-20T03:16:18.878Z,34.63
2017-09-20T03:18:53.373Z,33.70
2017-09-20T03:21:27.234Z,35.17
2017-09-20T03:24:01.490Z,33.75
2017-09-20T03:26:35.381Z,33.45
2017-09-20T03:29:09.650Z,32.60
2017-09-20T03:31:43.362Z,33.83
2017-09-20T03:34:17.906Z,34.80
2017-09-20T03:36:51.606Z,33.70
2017-09-20T03:39:26.236Z,35.90
2017-09-20T03:41:54.347Z,33.55
2017-09-20T03:44:23.198Z,30.70
2017-09-20T03:46:51.678Z,33.53
2017-09-20T03:49:19.792Z,34.05
2017-09-20T03:51:48.284Z,34.53
2017-09-20T03:54:17.137Z,30.55
2017-09-20T03:56:45.995Z,32.58
2017-09-20T03:59:14.111Z,34.50
2017-09-20T04:01:42.958Z,34.47
2017-09-20T04:04:11.438Z,33.95
2017-09-20T04:06:39.558Z,32.40
2017-09-20T04:09:08.402Z,33.88
2017-09-20T04:11:36.510Z,37.10
2017-09-20T04:14:04.594Z,35.17
2017-09-20T04:16:33.458Z,38.30
2017-09-20T04:19:01.561Z,36.08
2017-09-20T04:21:30.415Z,36.65
2017-09-20T04:23:58.518Z,35.83
2017-09-20T04:26:27.365Z,36.85
2017-09-20T04:28:55.483Z,32.28
2017-09-20T04:31:24.330Z,32.83
2017-09-20T04:33:52.418Z,31.55
2017-09-20T04:36:20.922Z,33.78
2017-09-20T04:38:49.790Z,31.23
2017-09-20T04:41:17.874Z,34.22
2017-09-20T04:43:45.982Z,34.45
2017-09-20T04:46:14.105Z,31.92
2017-09-20T04:48:42.194Z,31.00
2017-09-20T04:51:10.302Z,32.88
2017-09-20T04:53:39.151Z,29.92
2017-09-20T04:56:07.271Z,32.28
2017-09-20T04:58:35.359Z,29.70
2017-09-20T05:01:03.438Z,31.35
2017-09-20T05:03:31.933Z,29.52
2017-09-20T05:06:00.042Z,28.75
2017-09-20T05:08:28.918Z,28.60
2017-09-20T05:10:57.003Z,27.73
2017-09-20T05:13:25.869Z,27.60
2017-09-20T05:15:53.962Z,29.08
2017-09-20T05:18:22.829Z,30.15
2017-09-20T05:20:51.702Z,28.42
2017-09-20T05:23:19.794Z,26.98
2017-09-20T05:25:47.919Z,32.83
2017-09-20T05:28:16.006Z,31.58
2017-09-20T05:30:45.239Z,34.95
2017-09-20T05:33:13.353Z,34.15
2017-09-20T05:35:42.199Z,31.50
2017-09-20T05:38:10.286Z,30.20
2017-09-20T05:40:38.396Z,34.63
2017-09-20T05:43:06.516Z,33.88
2017-09-20T05:45:34.601Z,34.50
2017-09-20T05:48:02.681Z,30.92
2017-09-20T05:50:30.793Z,31.95
2017-09-20T05:52:58.887Z,32.75
2017-09-20T05:55:27.365Z,30.92
2017-09-20T05:57:55.474Z,30.80
2017-09-20T06:00:23.562Z,31.90
2017-09-20T06:02:52.423Z,30.37
2017-09-20T06:05:20.529Z,32.75
2017-09-20T06:07:49.389Z,29.85
2017-09-20T06:10:17.479Z,31.37
2017-09-20T06:12:46.351Z,30.23
2017-09-20T06:15:14.437Z,31.70
2017-09-20T06:17:43.310Z,31.75
2017-09-20T06:20:11.395Z,31.55
2017-09-20T06:22:39.486Z,30.88
2017-09-20T06:25:09.092Z,29.65
2017-09-20T06:27:37.998Z,31.73
2017-09-20T06:30:06.088Z,29.08
2017-09-20T06:32:34.591Z,29.85
2017-09-20T06:35:02.681Z,28.00
2017-09-20T06:37:30.838Z,27.90
2017-09-20T06:39:59.643Z,30.08
2017-09-20T06:42:27.761Z,31.75
2017-09-20T06:44:56.610Z,30.83
2017-09-20T06:47:24.693Z,33.05
2017-09-20T06:49:52.803Z,31.92
2017-09-20T06:52:20.890Z,32.53
2017-09-20T06:54:50.505Z,32.15
2017-09-20T06:57:18.592Z,30.50
2017-09-20T06:59:46.726Z,32.72
2017-09-20T07:02:15.187Z,30.98
2017-09-20T07:04:43.672Z,32.35
2017-09-20T07:07:12.553Z,30.10
2017-09-20T07:09:40.634Z,29.60
2017-09-20T07:12:09.498Z,30.67
2017-09-20T07:14:38.011Z,32.95
2017-09-20T07:17:06.496Z,34.08
2017-09-20T07:19:35.367Z,33.25
2017-09-20T07:22:03.485Z,32.28
2017-09-20T07:24:31.586Z,32.70
2017-09-20T07:26:59.710Z,32.30
2017-09-20T07:29:27.798Z,32.58
2017-09-20T07:31:56.646Z,31.05
2017-09-20T07:34:24.750Z,31.55
2017-09-20T07:36:52.833Z,32.40
2017-09-20T07:39:21.718Z,31.02
2017-09-20T07:41:49.797Z,30.95
2017-09-20T07:44:17.878Z,30.30
2017-09-20T07:46:47.117Z,30.25
2017-09-20T07:49:15.593Z,33.40
2017-09-20T07:51:43.694Z,32.28
2017-09-20T07:54:12.566Z,30.15
2017-09-20T07:56:40.647Z,30.55
2017-09-20T07:59:09.522Z,28.77
2017-09-20T08:01:37.609Z,31.77
2017-09-20T08:04:05.691Z,31.58
2017-09-20T08:06:34.558Z,29.23
2017-09-20T08:09:02.651Z,28.17
2017-09-20T08:11:31.526Z,28.65
2017-09-20T08:14:00.374Z,30.50
2017-09-20T08:16:28.490Z,31.33
2017-09-20T08:18:56.579Z,31.05
2017-09-20T08:21:25.439Z,30.75
2017-09-20T08:23:53.541Z,28.90
2017-09-20T08:26:22.385Z,31.65
2017-09-20T08:28:50.495Z,32.88
2017-09-20T08:31:19.356Z,33.35
2017-09-20T08:33:47.842Z,30.52
2017-09-20T08:36:15.959Z,29.55
2017-09-20T08:38:44.808Z,32.47
2017-09-20T08:41:12.889Z,30.25
2017-09-20T08:43:42.502Z,32.08
2017-09-20T08:46:10.591Z,29.60
2017-09-20T08:48:39.462Z,31.20
2017-09-20T08:51:07.972Z,29.77
2017-09-20T08:53:36.819Z,33.38
2017-09-20T08:56:05.338Z,31.35
2017-09-20T08:58:34.189Z,32.55
2017-09-20T09:01:02.298Z,32.28
2017-09-20T09:03:31.150Z,30.12
2017-09-20T09:05:59.261Z,32.78
2017-09-20T09:08:28.118Z,30.08
2017-09-20T09:10:56.603Z,30.50
2017-09-20T09:13:26.226Z,28.73
2017-09-20T09:15:54.306Z,30.08
2017-09-20T09:18:23.162Z,28.70
2017-09-20T09:20:51.662Z,28.98
2017-09-20T09:23:19.745Z,27.20
2017-09-20T09:25:47.872Z,27.87
2017-09-20T09:28:15.955Z,27.98
2017-09-20T09:30:44.429Z,29.80
2017-09-20T09:33:12.539Z,27.02
2017-09-20T09:35:40.686Z,27.75
2017-09-20T09:38:08.770Z,27.15
2017-09-20T09:40:36.863Z,25.27
2017-09-20T09:43:04.970Z,26.42
2017-09-20T09:45:33.053Z,27.17
2017-09-20T09:48:02.307Z,27.33
2017-09-20T09:50:30.390Z,23.60
2017-09-20T09:52:59.241Z,26.33
2017-09-20T09:55:27.354Z,26.20
2017-09-20T09:57:56.215Z,26.40
2017-09-20T10:00:24.293Z,24.50
2017-09-20T10:02:52.403Z,24.23
2017-09-20T10:05:20.485Z,25.40
2017-09-20T10:07:48.590Z,25.33
2017-09-20T10:10:17.466Z,23.30
2017-09-20T10:12:46.687Z,24.45
2017-09-20T10:15:14.775Z,23.35
2017-09-20T10:17:43.293Z,22.77
2017-09-20T10:20:11.387Z,22.83
2017-09-20T10:22:39.466Z,21.75
2017-09-20T10:25:07.567Z,22.15
2017-09-20T10:27:35.675Z,23.67
2017-09-20T10:30:04.310Z,23.30
2017-09-20T10:32:32.418Z,21.87
2017-09-20T10:35:00.507Z,21.60
2017-09-20T10:37:29.381Z,22.00
2017-09-20T10:39:57.893Z,22.67
2017-09-20T10:42:25.977Z,21.37
2017-09-20T10:44:54.063Z,23.85
2017-09-20T10:47:22.184Z,24.25
2017-09-20T10:49:51.039Z,23.25
2017-09-20T10:52:19.146Z,22.70
2017-09-20T10:54:48.003Z,24.37
2017-09-20T10:57:16.094Z,22.60
2017-09-20T10:59:44.206Z,21.10
2017-09-20T11:02:12.293Z,22.90
2017-09-20T11:04:40.486Z,22.25
2017-09-20T11:07:08.559Z,19.60
2017-09-20T11:09:37.766Z,21.83
2017-09-20T11:12:06.634Z,22.67
2017-09-20T11:14:34.722Z,21.98
2017-09-20T11:17:03.223Z,23.58
2017-09-20T11:19:31.301Z,23.52
2017-09-20T11:21:59.444Z,22.50
2017-09-20T11:24:27.502Z,23.05
2017-09-20T11:26:55.594Z,22.45
2017-09-20T11:29:23.690Z,21.48
2017-09-20T11:31:51.773Z,24.12
2017-09-20T11:34:20.286Z,19.83
2017-09-20T11:36:48.403Z,21.73
2017-09-20T11:39:16.510Z,20.17
2017-09-20T11:41:45.378Z,20.12
2017-09-20T11:44:13.473Z,24.65
2017-09-20T11:46:42.342Z,22.65
2017-09-20T11:49:10.426Z,21.92
2017-09-20T11:51:38.941Z,22.33
2017-09-20T11:54:07.032Z,22.75
2017-09-20T11:56:35.119Z,21.58
2017-09-20T11:59:03.227Z,18.87
2017-09-20T12:01:31.309Z,21.62
2017-09-20T12:04:00.186Z,22.27
2017-09-20T12:06:28.269Z,21.55
2017-09-20T12:08:56.753Z,20.55
2017-09-20T12:11:25.627Z,20.40
2017-09-20T12:13:53.739Z,20.00
2017-09-20T12:16:22.623Z,20.52
2017-09-20T12:18:51.466Z,21.85
2017-09-20T12:21:19.949Z,22.23
2017-09-20T12:23:48.067Z,20.90
2017-09-20T12:26:16.150Z,18.85
2017-09-20T12:28:44.349Z,17.92
2017-09-20T12:31:12.805Z,17.80
2017-09-20T12:33:41.658Z,17.77
2017-09-20T12:36:10.538Z,17.95
2017-09-20T12:38:38.622Z,18.20
2017-09-20T12:41:07.102Z,19.60
2017-09-20T12:43:35.991Z,16.85
2017-09-20T12:46:04.078Z,18.77
2017-09-20T12:48:32.943Z,15.65
2017-09-20T12:51:01.434Z,15.52
2017-09-20T12:53:29.518Z,15.57
2017-09-20T12:55:58.402Z,15.13
2017-09-20T12:58:27.253Z,15.70
2017-09-20T13:00:55.344Z,15.57
2017-09-20T13:03:23.456Z,15.63
2017-09-20T13:05:52.322Z,16.60
2017-09-20T13:08:20.451Z,15.48
2017-09-20T13:10:48.534Z,14.52
2017-09-20T13:13:16.622Z,15.43
2017-09-20T13:15:44.725Z,15.35
2017-09-20T13:18:13.570Z,16.25
2017-09-20T13:20:41.682Z,13.88
2017-09-20T13:23:10.558Z,13.93
2017-09-20T13:25:39.043Z,16.45
2017-09-20T13:28:07.131Z,14.57
2017-09-20T13:30:35.994Z,13.93
2017-09-20T13:33:04.077Z,13.93
2017-09-20T13:35:32.222Z,14.63
2017-09-20T13:38:01.053Z,13.55
2017-09-20T13:40:29.910Z,13.55
2017-09-20T13:42:58.022Z,14.02
2017-09-20T13:45:26.875Z,13.93
2017-09-20T13:47:55.755Z,13.35
2017-09-20T13:50:23.842Z,14.50
2017-09-20T13:52:51.923Z,14.38
2017-09-20T13:55:20.006Z,14.25
2017-09-20T13:57:48.507Z,14.13
2017-09-20T14:00:17.377Z,15.95
2017-09-20T14:02:45.857Z,14.40
2017-09-20T14:05:14.373Z,13.50
2017-09-20T14:07:42.463Z,14.77
2017-09-20T14:10:12.738Z,14.80
2017-09-20T14:12:41.217Z,14.75
2017-09-20T14:15:09.306Z,15.80
2017-09-20T14:17:38.184Z,16.23
2017-09-20T14:20:06.274Z,15.38
2017-09-20T14:22:35.122Z,15.15
2017-09-20T14:25:03.264Z,16.00
2017-09-20T14:27:31.342Z,15.32
2017-09-20T14:29:59.428Z,15.98
2017-09-20T14:32:27.530Z,15.40
2017-09-20T14:34:55.646Z,14.75
2017-09-20T14:37:23.730Z,15.70
2017-09-20T14:39:51.818Z,14.15
2017-09-20T14:42:19.925Z,13.43
2017-09-20T14:44:48.019Z,14.60
2017-09-20T14:47:16.889Z,14.45
2017-09-20T14:49:44.975Z,15.55
2017-09-20T14:52:13.850Z,13.90
2017-09-20T14:54:41.933Z,13.75
2017-09-20T14:57:10.806Z,13.57
2017-09-20T14:59:38.895Z,13.98
2017-09-20T15:02:07.775Z,13.50
2017-09-20T15:04:35.854Z,14.02
2017-09-20T15:07:04.703Z,13.95
2017-09-20T15:09:32.814Z,13.95
2017-09-20T15:12:01.671Z,12.00
2017-09-20T15:14:29.750Z,12.30
2017-09-20T15:16:57.860Z,11.52
2017-09-20T15:19:26.701Z,12.60
2017-09-20T15:21:54.805Z,12.32
2017-09-20T15:24:23.282Z,12.93
2017-09-20T15:26:51.399Z,11.75
2017-09-20T15:29:19.485Z,12.50
2017-09-20T15:31:47.561Z,12.37
2017-09-20T15:34:15.671Z,12.77
2017-09-20T15:36:43.768Z,11.07
2017-09-20T15:39:12.619Z,10.40
2017-09-20T15:41:40.727Z,11.10
2017-09-20T15:44:09.578Z,10.25
2017-09-20T15:46:37.689Z,11.48
2017-09-20T15:49:06.545Z,11.30
2017-09-20T15:51:34.625Z,11.40
2017-09-20T15:54:02.726Z,11.75
2017-09-20T15:56:31.213Z,10.10
2017-09-20T15:59:00.087Z,9.82
2017-09-20T16:01:28.161Z,10.50
2017-09-20T16:03:56.638Z,9.65
2017-09-20T16:06:24.746Z,10.02
2017-09-20T16:08:53.615Z,9.80
2017-09-20T16:11:22.462Z,9.32
2017-09-20T16:13:50.542Z,9.40
2017-09-20T16:16:18.655Z,8.82
2017-09-20T16:18:47.498Z,9.10
2017-09-20T16:21:15.972Z,8.85
2017-09-20T16:23:44.082Z,8.85
2017-09-20T16:26:12.156Z,8.70
2017-09-20T16:28:40.225Z,8.00
2017-09-20T16:31:08.331Z,7.55
2017-09-20T16:33:36.437Z,10.57
2017-09-20T16:36:04.526Z,9.93
2017-09-20T16:38:32.601Z,10.10
2017-09-20T16:41:00.710Z,10.38
2017-09-20T16:43:29.569Z,8.07
2017-09-20T16:45:57.665Z,8.45
2017-09-20T16:48:26.502Z,8.27
2017-09-20T16:50:54.594Z,7.90
2017-09-20T16:53:22.671Z,7.37
2017-09-20T16:55:52.274Z,7.28
2017-09-20T16:58:20.341Z,5.93
2017-09-20T17:00:48.451Z,7.28
2017-09-20T17:03:17.296Z,8.85
2017-09-20T17:05:45.766Z,8.35
2017-09-20T17:08:13.857Z,9.30
2017-09-20T17:10:41.930Z,8.70
2017-09-20T17:13:10.050Z,7.87
2017-09-20T17:15:38.515Z,6.30
2017-09-20T17:18:06.606Z,7.90
2017-09-20T17:20:35.438Z,8.10
2017-09-20T17:23:03.531Z,6.97
2017-09-20T17:25:31.602Z,6.72
2017-09-20T17:28:00.094Z,7.53
2017-09-20T17:30:28.174Z,7.68
2017-09-20T17:32:56.270Z,6.40
2017-09-20T17:35:24.350Z,7.15
2017-09-20T17:37:52.816Z,7.40
2017-09-20T17:40:21.668Z,7.32
2017-09-20T17:42:49.741Z,7.05
2017-09-20T17:45:19.342Z,6.05
2017-09-20T17:47:47.462Z,6.22
2017-09-20T17:50:16.301Z,6.78
2017-09-20T17:52:44.378Z,6.90
2017-09-20T17:55:13.238Z,6.40
2017-09-20T17:57:42.490Z,7.40
2017-09-20T18:00:10.574Z,6.65
2017-09-20T18:02:39.414Z,7.30
2017-09-20T18:05:07.506Z,7.20
2017-09-20T18:07:36.729Z,5.80
2017-09-20T18:10:05.168Z,6.87
2017-09-20T18:12:33.266Z,7.50
2017-09-20T18:15:01.747Z,7.82
2017-09-20T18:17:29.851Z,8.10
2017-09-20T18:19:58.689Z,8.32
2017-09-20T18:22:27.570Z,7.68
2017-09-20T18:24:55.636Z,27.23
2017-09-20T18:27:23.817Z,10.05
2017-09-20T18:29:52.650Z,7.20
2017-09-20T18:32:21.122Z,8.70
2017-09-20T18:34:49.202Z,9.15
2017-09-20T18:37:18.075Z,9.43
2017-09-20T18:39:46.550Z,9.65
2017-09-20T18:42:14.651Z,8.35
2017-09-20T18:44:43.530Z,9.75
2017-09-20T18:47:11.622Z,8.38
2017-09-20T18:49:40.466Z,8.45
2017-09-20T18:52:09.351Z,8.57
2017-09-20T18:54:37.450Z,10.82
2017-09-20T18:57:05.527Z,10.70
2017-09-20T18:59:33.627Z,9.15
2017-09-20T19:02:02.476Z,9.23
2017-09-20T19:04:30.583Z,10.18
2017-09-20T19:06:59.425Z,8.55
2017-09-20T19:09:27.526Z,10.90
2017-09-20T19:11:55.607Z,8.75
2017-09-20T19:14:24.478Z,10.32
2017-09-20T19:16:52.581Z,10.18
2017-09-20T19:19:21.442Z,10.32
2017-09-20T19:21:49.522Z,9.30
2017-09-20T19:24:18.027Z,10.10
2017-09-20T19:26:46.501Z,10.68
2017-09-20T19:29:15.386Z,10.30
2017-09-20T19:31:44.247Z,10.18
2017-09-20T19:34:12.326Z,10.88
2017-09-20T19:36:40.430Z,12.15
2017-09-20T19:39:09.300Z,11.63
2017-09-20T19:41:38.945Z,11.07
2017-09-20T19:44:07.418Z,11.40
2017-09-20T19:46:35.507Z,11.60
2017-09-20T19:49:04.430Z,13.05
2017-09-20T19:51:32.514Z,12.35
2017-09-20T19:54:00.609Z,12.23
2017-09-20T19:56:29.112Z,15.63
2017-09-20T19:58:57.194Z,13.07
2017-09-20T20:01:25.709Z,12.75
2017-09-20T20:03:53.816Z,14.10
2017-09-20T20:06:22.283Z,11.98
2017-09-20T20:08:50.782Z,10.40
2017-09-20T20:11:19.658Z,11.73
2017-09-20T20:13:48.150Z,10.25
2017-09-20T20:16:16.998Z,11.38
2017-09-20T20:18:45.115Z,11.73
2017-09-20T20:21:13.967Z,12.07
2017-09-20T20:23:42.071Z,12.02
2017-09-20T20:26:10.177Z,13.32
2017-09-20T20:28:38.267Z,10.52
2017-09-20T20:31:06.374Z,10.27
2017-09-20T20:33:34.458Z,11.45
2017-09-20T20:36:02.542Z,11.75
2017-09-20T20:38:31.418Z,12.18
2017-09-20T20:40:59.898Z,12.15
2017-09-20T20:43:27.983Z,11.85
2017-09-20T20:45:56.494Z,12.75
2017-09-20T20:48:24.577Z,13.15
2017-09-20T20:50:52.696Z,12.15
2017-09-20T20:53:21.175Z,12.57
2017-09-20T20:55:49.254Z,14.68
2017-09-20T20:58:17.372Z,13.32
2017-09-20T21:00:45.478Z,12.98
2017-09-20T21:03:13.576Z,13.95
2017-09-20T21:05:42.467Z,12.37
2017-09-20T21:08:10.567Z,12.05
2017-09-20T21:10:38.658Z,12.50
2017-09-20T21:13:07.162Z,12.40
2017-09-20T21:15:35.253Z,12.65
2017-09-20T21:18:03.826Z,11.23
2017-09-20T21:20:31.967Z,12.98
2017-09-20T21:23:00.051Z,23.77
2017-09-20T21:25:28.146Z,19.35
2017-09-20T21:27:56.645Z,15.23
2017-09-20T21:30:24.798Z,12.52
2017-09-20T21:32:52.974Z,13.65
2017-09-20T21:35:21.489Z,13.50
2017-09-20T21:37:49.642Z,12.90
2017-09-20T21:40:17.742Z,13.00
2017-09-20T21:42:46.285Z,13.23
2017-09-20T21:45:14.866Z,13.15
2017-09-20T21:47:43.453Z,13.52
2017-09-20T21:50:11.538Z,11.90
2017-09-20T21:52:40.038Z,12.23
2017-09-20T21:55:08.903Z,12.35
2017-09-20T21:57:37.121Z,13.43
2017-09-20T22:00:05.230Z,12.85
2017-09-20T22:02:33.419Z,13.90
2017-09-20T22:05:01.594Z,14.65
2017-09-20T22:07:29.770Z,13.75
2017-09-20T22:09:57.853Z,14.00
2017-09-20T22:12:25.966Z,13.98
2017-09-20T22:14:53.574Z,12.80
2017-09-20T22:17:33.489Z,13.77
2017-09-20T22:20:13.681Z,12.90
2017-09-20T22:22:53.743Z,15.93
2017-09-20T22:25:33.742Z,15.02
2017-09-20T22:28:01.874Z,13.30
2017-09-20T22:30:30.030Z,13.50
2017-09-20T22:32:58.141Z,12.60
2017-09-20T22:35:27.107Z,11.90
2017-09-20T22:37:55.281Z,12.32
2017-09-20T22:40:23.452Z,13.57
2017-09-20T22:42:51.534Z,12.77
2017-09-20T22:45:19.638Z,14.15
2017-09-20T22:47:47.722Z,14.10
2017-09-20T22:50:15.841Z,13.65
2017-09-20T22:52:43.932Z,13.65
2017-09-20T22:55:12.018Z,14.57
2017-09-20T22:57:40.975Z,14.77
2017-09-20T23:00:09.061Z,13.57
2017-09-20T23:02:37.226Z,13.73
2017-09-20T23:05:05.390Z,15.13
2017-09-20T23:07:33.474Z,13.62
2017-09-20T23:10:01.643Z,14.18
2017-09-20T23:12:29.823Z,15.55
2017-09-20T23:14:57.906Z,14.02
2017-09-20T23:17:26.066Z,13.90
2017-09-20T23:19:54.155Z,14.73
2017-09-20T23:22:22.237Z,14.30
2017-09-20T23:24:50.738Z,13.13
2017-09-20T23:27:18.854Z,16.35
2017-09-20T23:29:47.038Z,15.70
2017-09-20T23:32:15.214Z,16.20
2017-09-20T23:34:43.790Z,15.55
2017-09-20T23:37:11.908Z,15.32
2017-09-20T23:39:40.859Z,14.73
2017-09-20T23:42:09.029Z,15.88
2017-09-20T23:44:37.162Z,17.65
2017-09-20T23:47:05.251Z,17.48
2017-09-20T23:49:33.346Z,16.85
2017-09-20T23:52:01.461Z,17.87
2017-09-20T23:54:30.333Z,17.58
2017-09-20T23:56:58.406Z,15.90
2017-09-20T23:59:26.562Z,19.80
